Time;durP1;ratioP1;P1;durP2;ratioP2;P2;SDS_P1;SDS_P2;PMS_P1;PMS_P2;Temp;Humidity;BMP_temperature;BMP_pressure;BME280_temperature;BME280_humidity;BME280_pressure;Samples;Min_cycle;Max_cycle;Signal;HPM_P1;HPM_P2
2023/09/14 00:01:16;;;;;;;9.40;3.10;;;15.70;99.90;;;;;;7302568;19;20203;-80
2023/09/14 00:03:46;;;;;;;7.17;3.20;;;15.60;99.90;;;;;;7305626;19;20196;-80
2023/09/14 00:06:14;;;;;;;12.07;3.77;;;15.60;99.90;;;;;;7304711;19;20203;-79
2023/09/14 00:08:47;;;;;;;9.10;3.50;;;15.60;99.90;;;;;;7305943;19;20226;-79
2023/09/14 00:11:16;;;;;;;8.37;3.47;;;15.50;99.90;;;;;;7304791;19;20199;-78
2023/09/14 00:13:42;;;;;;;8.80;3.60;;;15.50;99.90;;;;;;7298844;19;20657;-79
2023/09/14 00:16:08;;;;;;;7.93;3.60;;;15.60;99.90;;;;;;7294541;19;20224;-80
2023/09/14 00:18:34;;;;;;;9.57;3.50;;;15.60;99.90;;;;;;7300625;19;20200;-80
2023/09/14 00:21:02;;;;;;;9.17;3.40;;;15.60;99.90;;;;;;7300575;19;20181;-80
2023/09/14 00:23:32;;;;;;;10.93;3.60;;;15.50;99.90;;;;;;7290051;19;20653;-80
2023/09/14 00:26:03;;;;;;;10.57;3.83;;;15.50;99.90;;;;;;7302210;19;20263;-79
2023/09/14 00:28:35;;;;;;;9.13;3.30;;;15.50;99.90;;;;;;7303590;19;20217;-80
2023/09/14 00:31:13;;;;;;;7.80;3.53;;;15.50;99.90;;;;;;7282270;19;20192;-81
2023/09/14 00:33:42;;;;;;;8.10;3.23;;;15.50;99.90;;;;;;7301158;19;20193;-79
2023/09/14 00:36:08;;;;;;;10.93;3.57;;;15.50;99.90;;;;;;7285088;19;20180;-80
2023/09/14 00:38:37;;;;;;;10.97;3.97;;;15.40;99.90;;;;;;7297050;19;20192;-80
2023/09/14 00:41:17;;;;;;;9.80;3.90;;;15.50;99.90;;;;;;7278126;19;20203;-80
2023/09/14 00:43:44;;;;;;;9.80;4.10;;;15.50;99.90;;;;;;7298947;19;20208;-79
2023/09/14 00:46:11;;;;;;;8.00;3.67;;;15.50;99.90;;;;;;7290195;19;20204;-79
2023/09/14 00:48:40;;;;;;;7.87;3.20;;;15.50;99.90;;;;;;7300892;19;20188;-78
2023/09/14 00:51:13;;;;;;;10.73;3.30;;;15.60;99.90;;;;;;7300155;19;20228;-79
2023/09/14 00:53:39;;;;;;;10.53;3.80;;;15.70;99.90;;;;;;7296004;19;20231;-79
2023/09/14 00:56:06;;;;;;;8.50;3.60;;;15.60;99.90;;;;;;7296566;19;20198;-79
2023/09/14 00:58:34;;;;;;;8.10;3.50;;;15.60;99.90;;;;;;7296841;19;20200;-79
2023/09/14 01:01:03;;;;;;;10.40;3.67;;;15.60;99.90;;;;;;7279929;19;20196;-81
2023/09/14 01:03:35;;;;;;;6.57;3.30;;;15.60;99.90;;;;;;7301819;19;20172;-80
2023/09/14 01:06:02;;;;;;;8.10;3.40;;;15.50;99.90;;;;;;7300263;19;20213;-80
2023/09/14 01:08:28;;;;;;;8.03;3.77;;;15.50;99.90;;;;;;7300838;19;20195;-80
2023/09/14 01:11:01;;;;;;;10.13;3.73;;;15.50;99.90;;;;;;7300343;19;20189;-79
2023/09/14 01:13:51;;;;;;;9.60;3.83;;;15.40;99.90;;;;;;7300865;19;20205;-79
2023/09/14 01:16:33;;;;;;;10.10;3.83;;;15.30;99.90;;;;;;7296432;19;20197;-79
2023/09/14 01:19:27;;;;;;;8.43;3.20;;;15.40;99.90;;;;;;7200187;19;2004827;-78
2023/09/14 01:22:27;;;;;;;6.43;3.23;;;15.30;99.90;;;;;;7296056;19;20223;-80
2023/09/14 01:25:18;;;;;;;7.60;3.30;;;15.10;99.90;;;;;;7196972;19;2005845;-80
2023/09/14 01:27:45;;;;;;;8.30;3.77;;;15.00;99.90;;;;;;7202190;19;2004641;-80
2023/09/14 01:30:14;;;;;;;10.87;3.77;;;14.90;99.90;;;;;;7302841;19;20236;-80
2023/09/14 01:32:41;;;;;;;8.00;3.40;;;15.00;99.90;;;;;;7304883;19;20193;-80
2023/09/14 01:35:08;;;;;;;9.80;3.87;;;14.90;99.90;;;;;;7307554;19;20224;-79
2023/09/14 01:37:38;;;;;;;8.00;3.40;;;14.90;99.90;;;;;;7304307;19;20199;-80
2023/09/14 01:40:09;;;;;;;8.07;3.70;;;14.80;99.90;;;;;;7304087;19;20195;-79
2023/09/14 01:42:39;;;;;;;9.83;3.47;;;14.80;99.90;;;;;;7301494;19;20194;-79
2023/09/14 01:45:17;;;;;;;8.63;3.30;;;14.90;99.90;;;;;;7307938;19;20190;-79
2023/09/14 01:47:52;;;;;;;8.80;3.07;;;14.90;99.90;;;;;;7309411;19;20190;-80
2023/09/14 01:50:24;;;;;;;8.87;3.70;;;15.00;99.90;;;;;;7301613;19;20635;-80
2023/09/14 01:52:56;;;;;;;9.40;3.50;;;15.00;99.90;;;;;;7307353;19;20183;-79
2023/09/14 01:55:23;;;;;;;10.53;3.63;;;15.00;99.90;;;;;;7305312;19;20202;-78
2023/09/14 01:57:50;;;;;;;10.33;3.60;;;15.10;99.90;;;;;;7298917;19;20707;-80
2023/09/14 02:00:25;;;;;;;9.23;3.67;;;15.10;99.90;;;;;;7304298;19;20186;-80
2023/09/14 02:02:55;;;;;;;7.00;3.40;;;15.00;99.90;;;;;;7295666;19;20210;-79
2023/09/14 02:05:22;;;;;;;10.10;3.63;;;14.80;99.90;;;;;;7304819;19;20199;-79
2023/09/14 02:07:48;;;;;;;8.47;3.60;;;14.70;99.90;;;;;;7305070;19;20193;-79
2023/09/14 02:10:14;;;;;;;6.80;3.40;;;14.70;99.90;;;;;;7304654;19;20205;-79
2023/09/14 02:12:45;;;;;;;9.67;3.70;;;14.70;99.90;;;;;;7303273;19;20855;-79
2023/09/14 02:15:17;;;;;;;10.53;3.97;;;14.60;99.90;;;;;;7307372;19;20203;-78
2023/09/14 02:17:44;;;;;;;9.37;3.67;;;14.60;99.90;;;;;;7305579;19;21080;-78
2023/09/14 02:20:12;;;;;;;7.73;3.13;;;14.50;99.90;;;;;;7297258;19;20225;-80
2023/09/14 02:22:40;;;;;;;8.73;3.50;;;14.40;99.90;;;;;;7305384;19;20196;-80
2023/09/14 02:25:07;;;;;;;10.53;3.70;;;14.40;99.90;;;;;;7306687;19;20211;-80
2023/09/14 02:27:35;;;;;;;10.70;3.23;;;14.50;99.90;;;;;;7304206;19;20187;-80
2023/09/14 02:30:09;;;;;;;8.40;3.67;;;14.50;99.90;;;;;;7257205;19;20203;-78
2023/09/14 02:32:35;;;;;;;8.93;3.60;;;14.50;99.90;;;;;;7304058;19;20193;-80
2023/09/14 02:35:02;;;;;;;7.07;3.47;;;14.60;99.90;;;;;;7306239;19;20247;-80
2023/09/14 02:37:29;;;;;;;8.77;3.40;;;14.50;99.90;;;;;;7303774;19;20209;-81
2023/09/14 02:39:57;;;;;;;8.37;3.00;;;14.50;99.90;;;;;;7310875;19;20186;-80
2023/09/14 02:42:30;;;;;;;8.17;3.10;;;14.50;99.90;;;;;;7314339;19;20265;-80
2023/09/14 02:44:56;;;;;;;9.77;3.40;;;14.40;99.90;;;;;;7308187;19;20189;-79
2023/09/14 02:47:25;;;;;;;7.93;3.40;;;14.50;99.90;;;;;;7319026;19;20209;-79
2023/09/14 02:49:55;;;;;;;8.80;3.37;;;14.50;99.90;;;;;;7305084;19;20200;-80
2023/09/14 02:52:23;;;;;;;9.70;3.43;;;14.60;99.90;;;;;;7303145;19;20225;-80
2023/09/14 02:54:50;;;;;;;8.30;3.23;;;14.50;99.90;;;;;;7304808;19;20189;-80
2023/09/14 02:57:18;;;;;;;7.23;3.27;;;14.50;99.90;;;;;;7304695;19;20212;-80
2023/09/14 02:59:47;;;;;;;8.60;3.43;;;14.50;99.90;;;;;;7285238;19;20194;-80
2023/09/14 03:02:13;;;;;;;9.80;3.50;;;14.40;99.90;;;;;;7289392;19;20193;-80
2023/09/14 03:04:40;;;;;;;9.20;3.50;;;14.30;99.90;;;;;;7283510;19;20199;-78
2023/09/14 03:07:06;;;;;;;8.87;3.80;;;14.30;99.90;;;;;;7296387;19;20193;-78
2023/09/14 03:09:34;;;;;;;8.53;3.83;;;14.10;99.90;;;;;;7301918;19;20185;-79
2023/09/14 03:12:07;;;;;;;11.10;3.80;;;13.90;99.90;;;;;;7305006;19;20211;-78
2023/09/14 03:14:37;;;;;;;9.53;3.60;;;13.80;99.90;;;;;;7296250;19;20191;-80
2023/09/14 03:17:06;;;;;;;12.03;4.37;;;13.60;99.90;;;;;;7287081;19;20197;-78
2023/09/14 03:19:34;;;;;;;10.33;4.00;;;13.60;99.90;;;;;;7295199;19;20189;-78
2023/09/14 03:22:00;;;;;;;17.07;4.07;;;13.60;99.90;;;;;;7293463;19;20261;-78
2023/09/14 03:24:27;;;;;;;12.90;4.30;;;13.70;99.90;;;;;;7290391;19;20293;-79
2023/09/14 03:26:53;;;;;;;13.10;4.77;;;13.80;99.90;;;;;;7318977;19;20189;-78
2023/09/14 03:29:19;;;;;;;10.50;4.43;;;13.80;99.90;;;;;;7294406;19;20201;-78
2023/09/14 03:31:45;;;;;;;10.33;4.10;;;13.80;99.90;;;;;;7295463;19;20215;-80
2023/09/14 03:34:11;;;;;;;10.93;4.77;;;13.90;99.90;;;;;;7298350;19;20222;-80
2023/09/14 03:36:37;;;;;;;10.60;4.50;;;14.00;99.90;;;;;;7297137;19;20191;-80
2023/09/14 03:39:04;;;;;;;11.10;4.33;;;14.00;99.90;;;;;;7298914;19;20225;-78
2023/09/14 03:41:34;;;;;;;11.03;4.10;;;14.00;99.90;;;;;;7295797;19;20186;-80
2023/09/14 03:44:01;;;;;;;11.07;4.00;;;14.00;99.90;;;;;;7298728;19;20191;-79
2023/09/14 03:46:29;;;;;;;8.03;3.90;;;14.00;99.90;;;;;;7294785;19;20194;-80
2023/09/14 03:48:58;;;;;;;8.93;3.70;;;14.10;99.90;;;;;;7311311;19;20215;-80
2023/09/14 03:51:27;;;;;;;11.73;4.40;;;14.10;99.90;;;;;;7317547;19;20677;-81
2023/09/14 03:53:53;;;;;;;13.10;4.43;;;14.20;99.90;;;;;;7314391;19;20190;-80
2023/09/14 03:56:20;;;;;;;9.70;3.90;;;14.30;99.90;;;;;;7292320;19;20195;-80
2023/09/14 03:58:46;;;;;;;9.17;4.17;;;14.30;99.90;;;;;;7294846;19;20199;-79
2023/09/14 04:01:13;;;;;;;12.20;4.03;;;14.30;99.90;;;;;;7297528;19;20186;-80
2023/09/14 04:03:41;;;;;;;10.90;4.50;;;14.20;99.90;;;;;;7295820;19;20218;-80
2023/09/14 04:06:07;;;;;;;10.73;4.10;;;14.20;99.90;;;;;;7299997;19;20993;-79
2023/09/14 04:08:35;;;;;;;11.77;4.63;;;14.20;99.90;;;;;;7294749;19;20203;-78
2023/09/14 04:11:01;;;;;;;12.10;4.30;;;14.20;99.90;;;;;;7298182;19;20750;-79
2023/09/14 04:13:32;;;;;;;10.87;4.60;;;14.20;99.90;;;;;;7296066;19;20215;-79
2023/09/14 04:16:21;;;;;;;9.93;4.13;;;14.10;99.90;;;;;;7291428;19;20207;-80
2023/09/14 04:18:48;;;;;;;8.87;4.70;;;14.10;99.90;;;;;;7286445;19;20206;-79
2023/09/14 04:21:15;;;;;;;11.30;4.13;;;14.00;99.90;;;;;;7298744;19;20213;-78
2023/09/14 04:23:45;;;;;;;11.17;4.30;;;14.00;99.90;;;;;;7299623;19;20185;-78
2023/09/14 04:26:13;;;;;;;10.03;4.37;;;14.00;99.90;;;;;;7300772;19;20203;-79
2023/09/14 04:28:46;;;;;;;8.27;4.40;;;14.00;99.90;;;;;;7299409;19;20190;-78
2023/09/14 04:31:12;;;;;;;13.93;4.70;;;13.90;99.90;;;;;;7268759;19;20299;-81
2023/09/14 04:33:42;;;;;;;12.20;4.83;;;13.80;99.90;;;;;;7297405;19;20197;-79
2023/09/14 04:36:10;;;;;;;11.53;4.83;;;13.80;99.90;;;;;;7296529;19;20193;-80
2023/09/14 04:38:41;;;;;;;11.37;4.97;;;13.80;99.90;;;;;;7294674;19;20673;-79
2023/09/14 04:41:10;;;;;;;11.03;5.10;;;13.80;99.90;;;;;;7289651;19;20511;-80
2023/09/14 04:43:39;;;;;;;12.87;5.00;;;13.90;99.90;;;;;;7294972;19;20248;-78
2023/09/14 04:46:05;;;;;;;13.73;5.37;;;13.90;99.90;;;;;;7291828;19;20236;-79
2023/09/14 04:48:32;;;;;;;16.07;5.70;;;13.90;99.90;;;;;;7287970;19;20930;-80
2023/09/14 04:50:58;;;;;;;13.50;5.47;;;14.00;99.90;;;;;;7283472;19;20190;-77
2023/09/14 04:53:26;;;;;;;10.10;5.80;;;13.70;99.90;;;;;;7305050;19;20179;-80
2023/09/14 04:55:53;;;;;;;11.73;5.90;;;13.70;99.90;;;;;;7284085;19;20198;-81
2023/09/14 04:58:19;;;;;;;12.70;5.97;;;13.60;99.90;;;;;;7287288;19;20187;-77
2023/09/14 05:00:49;;;;;;;15.40;6.10;;;13.60;99.90;;;;;;7284957;19;20723;-77
2023/09/14 05:03:18;;;;;;;14.63;5.90;;;13.60;99.90;;;;;;7289560;19;20635;-77
2023/09/14 05:05:50;;;;;;;13.70;6.80;;;13.70;99.90;;;;;;7288583;19;20965;-77
2023/09/14 05:08:16;;;;;;;13.10;6.37;;;13.60;99.90;;;;;;7287362;19;20241;-77
2023/09/14 05:10:42;;;;;;;14.57;7.00;;;13.70;99.90;;;;;;7292168;19;20201;-80
2023/09/14 05:13:08;;;;;;;15.07;6.80;;;13.80;99.90;;;;;;7294419;19;20203;-77
2023/09/14 05:15:34;;;;;;;14.03;6.90;;;13.90;99.90;;;;;;7291674;19;20263;-77
2023/09/14 05:18:01;;;;;;;17.37;6.27;;;14.00;99.90;;;;;;7286980;19;20193;-76
2023/09/14 05:20:29;;;;;;;12.43;6.23;;;14.00;99.90;;;;;;7292690;19;20682;-77
2023/09/14 05:22:55;;;;;;;13.30;6.87;;;14.10;99.90;;;;;;7315857;19;20556;-80
2023/09/14 05:25:20;;;;;;;13.47;6.53;;;14.10;99.90;;;;;;7298572;19;20179;-76
2023/09/14 05:27:47;;;;;;;15.30;6.60;;;14.20;99.90;;;;;;7290611;19;20218;-76
2023/09/14 05:30:13;;;;;;;12.60;5.80;;;14.20;99.90;;;;;;7292505;19;20230;-76
2023/09/14 05:32:40;;;;;;;15.00;6.27;;;14.20;99.90;;;;;;7286683;19;20190;-76
2023/09/14 05:35:06;;;;;;;14.80;6.33;;;14.30;99.90;;;;;;7288527;19;20616;-77
2023/09/14 05:37:33;;;;;;;14.17;5.47;;;14.30;99.90;;;;;;7294273;19;20279;-80
2023/09/14 05:40:00;;;;;;;9.30;5.00;;;14.30;99.90;;;;;;7295168;19;20253;-81
2023/09/14 05:42:29;;;;;;;13.67;6.17;;;14.30;99.90;;;;;;7302417;19;20188;-79
2023/09/14 05:44:57;;;;;;;11.77;5.83;;;14.40;99.90;;;;;;7304077;19;20200;-80
2023/09/14 05:47:24;;;;;;;11.60;5.10;;;14.80;99.90;;;;;;7314539;19;20714;-80
2023/09/14 05:49:50;;;;;;;11.73;4.77;;;15.20;99.90;;;;;;7305959;19;20190;-79
2023/09/14 05:52:16;;;;;;;14.67;6.13;;;15.60;99.90;;;;;;7303680;19;20184;-79
2023/09/14 05:54:42;;;;;;;11.23;4.50;;;16.10;99.90;;;;;;7296814;19;20227;-78
2023/09/14 05:57:15;;;;;;;10.37;4.60;;;16.40;99.90;;;;;;7305742;19;20205;-80
2023/09/14 05:59:42;;;;;;;10.63;4.33;;;16.80;99.90;;;;;;7303089;19;20208;-80
2023/09/14 06:02:14;;;;;;;10.27;4.30;;;17.10;99.90;;;;;;7301099;19;20241;-79
2023/09/14 06:04:42;;;;;;;10.67;4.50;;;17.40;99.90;;;;;;7302368;19;20193;-79
2023/09/14 06:07:10;;;;;;;11.40;4.27;;;17.30;99.90;;;;;;7282646;19;20192;-80
2023/09/14 06:09:37;;;;;;;14.77;4.40;;;17.10;99.90;;;;;;7271538;19;20185;-78
2023/09/14 06:12:14;;;;;;;11.40;4.80;;;17.00;99.90;;;;;;7299799;19;20217;-78
2023/09/14 06:14:40;;;;;;;12.30;5.00;;;16.90;99.90;;;;;;7302780;19;20259;-80
2023/09/14 06:17:06;;;;;;;12.53;4.77;;;16.80;99.90;;;;;;7304390;19;20200;-80
2023/09/14 06:19:33;;;;;;;15.50;6.10;;;16.70;99.90;;;;;;7303678;19;20177;-78
2023/09/14 06:22:05;;;;;;;15.03;6.93;;;16.60;99.90;;;;;;7302205;19;20202;-80
2023/09/14 06:24:34;;;;;;;12.70;6.30;;;16.60;99.90;;;;;;7304062;19;20209;-78
2023/09/14 06:27:00;;;;;;;15.03;6.23;;;16.60;99.90;;;;;;7286681;19;20186;-78
2023/09/14 06:29:27;;;;;;;19.10;7.30;;;16.60;99.90;;;;;;7325346;19;20260;-80
2023/09/14 06:31:55;;;;;;;15.53;7.37;;;16.70;99.90;;;;;;7277381;19;20304;-80
2023/09/14 06:34:22;;;;;;;14.43;7.90;;;16.70;99.90;;;;;;7304887;19;20199;-78
2023/09/14 06:36:55;;;;;;;16.63;6.90;;;16.80;99.90;;;;;;7303027;19;20680;-80
2023/09/14 06:39:21;;;;;;;13.50;6.57;;;17.00;99.90;;;;;;7301020;19;20316;-79
2023/09/14 06:41:47;;;;;;;14.93;6.03;;;18.10;99.90;;;;;;7300813;19;20186;-80
2023/09/14 06:44:18;;;;;;;13.30;5.90;;;20.30;99.90;;;;;;7300295;19;20194;-78
2023/09/14 06:46:47;;;;;;;17.23;5.80;;;22.10;99.90;;;;;;7293950;19;20202;-80
2023/09/14 06:49:14;;;;;;;16.60;6.30;;;23.80;99.90;;;;;;7299072;19;20202;-78
2023/09/14 06:51:42;;;;;;;21.63;8.53;;;25.40;99.90;;;;;;7301346;19;20185;-79
2023/09/14 06:54:23;;;;;;;20.43;8.67;;;26.30;99.90;;;;;;7300154;19;20256;-80
2023/09/14 06:56:49;;;;;;;20.98;9.13;;;26.80;99.90;;;;;;7301281;19;20178;-80
2023/09/14 06:59:15;;;;;;;18.58;9.35;;;26.90;99.90;;;;;;7303143;19;20189;-79
2023/09/14 07:01:41;;;;;;;19.10;10.00;;;27.50;99.90;;;;;;7299143;19;20185;-78
2023/09/14 07:04:07;;;;;;;20.65;9.38;;;27.30;99.90;;;;;;7296066;19;20200;-80
2023/09/14 07:06:35;;;;;;;15.80;9.00;;;27.50;99.90;;;;;;7299933;19;20786;-79
2023/09/14 07:09:07;;;;;;;18.50;9.73;;;28.30;99.90;;;;;;7303999;19;20217;-80
2023/09/14 07:11:35;;;;;;;16.70;9.60;;;28.40;99.90;;;;;;7302723;19;20185;-81
2023/09/14 07:14:03;;;;;;;16.85;9.93;;;29.10;99.90;;;;;;7302393;19;20193;-79
2023/09/14 07:16:32;;;;;;;15.82;9.13;;;29.50;99.90;;;;;;7302079;19;20248;-82
2023/09/14 07:19:00;;;;;;;17.20;9.25;;;29.70;99.90;;;;;;7305456;19;20588;-79
2023/09/14 07:21:34;;;;;;;15.05;8.27;;;30.80;99.90;;;;;;7322312;19;20213;-80
2023/09/14 07:24:06;;;;;;;14.80;8.23;;;31.30;99.90;;;;;;7194381;19;2004478;-79
2023/09/14 07:26:34;;;;;;;16.48;7.45;;;31.90;98.00;;;;;;7289033;19;20200;-79
2023/09/14 07:29:00;;;;;;;12.93;7.55;;;31.70;96.40;;;;;;7302003;19;20189;-79
2023/09/14 07:31:28;;;;;;;14.25;7.35;;;32.20;95.60;;;;;;7309883;19;20222;-79
2023/09/14 07:33:54;;;;;;;14.38;7.95;;;32.40;94.00;;;;;;7323535;19;20189;-80
2023/09/14 07:36:23;;;;;;;15.10;7.45;;;32.70;93.20;;;;;;7300903;19;20188;-81
2023/09/14 07:38:53;;;;;;;15.82;7.72;;;33.40;92.20;;;;;;7286350;19;20188;-81
2023/09/14 07:41:19;;;;;;;12.23;6.95;;;33.00;91.10;;;;;;7298233;19;20228;-81
2023/09/14 07:43:45;;;;;;;11.57;6.47;;;33.70;89.30;;;;;;7300538;19;20201;-81
2023/09/14 07:46:12;;;;;;;11.32;6.07;;;32.90;87.80;;;;;;7300811;19;20236;-81
2023/09/14 07:48:38;;;;;;;13.73;6.60;;;33.00;89.00;;;;;;7301680;19;20192;-78
2023/09/14 07:51:04;;;;;;;14.43;6.70;;;33.60;88.70;;;;;;7298806;19;20200;-79
2023/09/14 07:53:32;;;;;;;14.00;6.78;;;33.20;87.10;;;;;;7302457;19;20185;-80
2023/09/14 07:56:00;;;;;;;11.45;6.43;;;33.40;87.30;;;;;;7304097;19;20195;-81
2023/09/14 07:58:26;;;;;;;11.18;6.30;;;33.90;86.10;;;;;;7326986;19;20196;-80
2023/09/14 08:00:54;;;;;;;10.50;5.78;;;34.50;83.90;;;;;;7296531;19;20189;-79
2023/09/14 08:03:23;;;;;;;11.43;5.85;;;35.60;81.00;;;;;;7305695;19;20188;-79
2023/09/14 08:05:51;;;;;;;9.20;5.35;;;36.60;77.60;;;;;;7299952;19;20249;-80
2023/09/14 08:08:19;;;;;;;9.52;5.30;;;36.90;73.90;;;;;;7302971;19;20177;-79
2023/09/14 08:10:52;;;;;;;10.40;5.53;;;37.10;72.90;;;;;;7295682;19;20191;-80
2023/09/14 08:13:20;;;;;;;10.25;5.38;;;37.10;70.40;;;;;;7299547;19;20186;-78
2023/09/14 08:15:47;;;;;;;10.07;5.25;;;36.40;69.20;;;;;;7298937;19;20196;-79
2023/09/14 08:18:18;;;;;;;8.40;4.75;;;35.80;69.70;;;;;;7299722;19;20193;-79
2023/09/14 08:20:46;;;;;;;8.52;4.90;;;35.50;70.20;;;;;;7282447;19;20197;-79
2023/09/14 08:23:15;;;;;;;7.50;4.47;;;35.80;69.40;;;;;;7287617;19;20276;-79
2023/09/14 08:25:45;;;;;;;9.43;4.55;;;35.90;68.20;;;;;;7298662;19;20196;-79
2023/09/14 08:28:22;;;;;;;9.10;4.82;;;36.00;67.50;;;;;;7258513;19;20235;-81
2023/09/14 08:30:52;;;;;;;9.23;4.25;;;35.80;68.40;;;;;;7300728;19;20182;-81
2023/09/14 08:33:18;;;;;;;9.70;4.57;;;35.70;68.00;;;;;;7302837;19;20196;-79
2023/09/14 08:35:48;;;;;;;7.55;4.70;;;35.80;68.20;;;;;;7299090;19;20218;-81
2023/09/14 08:38:14;;;;;;;6.80;4.00;;;36.20;65.50;;;;;;7297244;19;20204;-79
2023/09/14 08:40:43;;;;;;;7.40;3.97;;;36.30;64.60;;;;;;7296697;19;20185;-81
2023/09/14 08:43:13;;;;;;;7.70;3.63;;;35.50;64.20;;;;;;7287250;19;20676;-80
2023/09/14 08:45:44;;;;;;;6.43;3.60;;;34.90;65.10;;;;;;7299417;19;20197;-81
2023/09/14 08:48:15;;;;;;;9.93;4.53;;;35.00;65.00;;;;;;7300418;19;20193;-79
2023/09/14 08:50:44;;;;;;;7.93;3.92;;;35.50;66.50;;;;;;7299763;19;20196;-80
2023/09/14 08:53:14;;;;;;;6.70;3.65;;;35.50;67.90;;;;;;7300097;19;20217;-81
2023/09/14 08:55:46;;;;;;;6.35;3.88;;;34.80;66.00;;;;;;7300257;19;20240;-81
2023/09/14 08:58:15;;;;;;;6.53;3.33;;;34.30;66.30;;;;;;7301061;19;20205;-81
2023/09/14 09:00:44;;;;;;;5.85;2.85;;;33.20;68.20;;;;;;7303259;19;20798;-81
2023/09/14 09:03:12;;;;;;;5.60;3.10;;;32.70;70.20;;;;;;7299347;19;20197;-81
2023/09/14 09:05:43;;;;;;;5.90;3.20;;;33.20;69.10;;;;;;7296251;19;20188;-79
2023/09/14 09:08:11;;;;;;;5.40;2.70;;;34.30;69.10;;;;;;7299943;19;20192;-79
2023/09/14 09:10:46;;;;;;;7.20;3.15;;;35.50;67.90;;;;;;7296135;19;20197;-81
2023/09/14 09:13:20;;;;;;;7.85;3.15;;;36.10;64.40;;;;;;7300165;19;20201;-80
2023/09/14 09:15:49;;;;;;;6.30;3.63;;;34.60;64.90;;;;;;7296234;19;21985;-81
2023/09/14 09:18:21;;;;;;;5.80;3.00;;;33.00;67.30;;;;;;7302391;19;20204;-81
2023/09/14 09:20:48;;;;;;;4.97;3.15;;;31.50;71.70;;;;;;7299624;19;20204;-81
2023/09/14 09:23:19;;;;;;;5.35;3.00;;;30.50;76.60;;;;;;7300248;19;20198;-81
2023/09/14 09:25:51;;;;;;;5.72;2.95;;;29.80;79.70;;;;;;7297576;19;20196;-80
2023/09/14 09:28:17;;;;;;;4.80;2.30;;;29.10;80.10;;;;;;7299978;19;20266;-79
2023/09/14 09:30:44;;;;;;;8.50;2.67;;;28.50;82.60;;;;;;7286602;19;20185;-81
2023/09/14 09:33:11;;;;;;;6.75;2.60;;;28.00;84.20;;;;;;7299148;19;20213;-79
2023/09/14 09:35:37;;;;;;;4.03;2.00;;;27.60;86.10;;;;;;7296716;19;20201;-78
2023/09/14 09:38:15;;;;;;;6.75;2.20;;;27.10;87.00;;;;;;7292353;19;20616;-81
2023/09/14 09:40:46;;;;;;;7.40;2.10;;;26.80;87.80;;;;;;7291563;19;20188;-79
2023/09/14 09:43:16;;;;;;;5.10;2.10;;;26.50;89.30;;;;;;7288082;19;20193;-79
2023/09/14 09:45:42;;;;;;;5.47;2.20;;;26.40;91.90;;;;;;7289597;19;20200;-81
2023/09/14 09:48:14;;;;;;;4.15;2.17;;;27.00;92.30;;;;;;7295098;19;20184;-81
2023/09/14 09:50:42;;;;;;;3.90;1.80;;;28.60;88.40;;;;;;7298318;19;20199;-78
2023/09/14 09:53:13;;;;;;;3.92;1.85;;;31.00;83.20;;;;;;7293744;19;20196;-81
2023/09/14 09:55:39;;;;;;;4.53;1.95;;;32.90;76.10;;;;;;7296019;19;20193;-79
2023/09/14 09:58:16;;;;;;;3.53;2.00;;;33.50;74.20;;;;;;7301305;19;20782;-81
2023/09/14 10:00:46;;;;;;;6.70;2.20;;;34.00;71.70;;;;;;7300036;19;20235;-80
2023/09/14 10:03:17;;;;;;;5.10;2.08;;;33.70;67.80;;;;;;7285675;19;20192;-78
2023/09/14 10:05:43;;;;;;;4.63;2.22;;;32.30;70.70;;;;;;7301013;19;20208;-78
2023/09/14 10:08:23;;;;;;;4.97;1.95;;;32.00;71.30;;;;;;7300530;19;20189;-81
2023/09/14 10:10:51;;;;;;;5.25;1.80;;;32.80;70.50;;;;;;7299508;19;20687;-79
2023/09/14 10:13:29;;;;;;;2.38;1.40;;;34.70;68.90;;;;;;7299059;19;20197;-82
2023/09/14 10:15:58;;;;;;;4.63;1.60;;;35.50;67.20;;;;;;7286215;19;20189;-80
2023/09/14 10:18:28;;;;;;;5.18;1.77;;;35.10;63.50;;;;;;7304026;19;20200;-82
2023/09/14 10:20:56;;;;;;;4.20;1.58;;;33.90;63.10;;;;;;7302713;19;20214;-80
2023/09/14 10:23:30;;;;;;;5.47;1.65;;;34.00;64.20;;;;;;7303032;19;20206;-81
2023/09/14 10:26:03;;;;;;;5.85;1.55;;;34.40;62.90;;;;;;7303128;19;20828;-79
2023/09/14 10:28:31;;;;;;;4.50;1.50;;;35.70;64.80;;;;;;7304067;19;20189;-81
2023/09/14 10:30:59;;;;;;;4.78;1.80;;;36.00;60.30;;;;;;7306912;19;20645;-81
2023/09/14 10:33:28;;;;;;;3.90;1.75;;;35.40;60.40;;;;;;7324567;19;20188;-78
2023/09/14 10:35:55;;;;;;;3.63;1.52;;;35.50;62.60;;;;;;7302436;19;20215;-78
2023/09/14 10:38:34;;;;;;;4.40;1.60;;;35.90;62.70;;;;;;7301961;19;20196;-80
2023/09/14 10:41:06;;;;;;;4.40;1.42;;;36.50;63.50;;;;;;7280936;19;20192;-79
2023/09/14 10:43:35;;;;;;;6.18;1.33;;;36.80;59.10;;;;;;7269521;19;20206;-81
2023/09/14 10:46:12;;;;;;;2.83;1.42;;;36.60;60.00;;;;;;7229445;19;20323;-79
2023/09/14 10:48:50;;;;;;;3.63;1.40;;;36.30;58.10;;;;;;7285497;19;20209;-81
2023/09/14 10:51:17;;;;;;;2.85;1.30;;;36.00;58.80;;;;;;7294813;19;20219;-78
2023/09/14 10:53:46;;;;;;;3.45;1.80;;;36.10;59.30;;;;;;7298931;19;20184;-81
2023/09/14 10:56:30;;;;;;;3.45;1.70;;;34.30;59.70;;;;;;7302434;19;20185;-79
2023/09/14 10:59:09;;;;;;;3.20;1.52;;;34.40;61.40;;;;;;7288443;19;20193;-80
2023/09/14 11:01:50;;;;;;;4.15;1.65;;;35.70;59.40;;;;;;7298132;19;20215;-79
2023/09/14 11:04:27;;;;;;;2.78;1.40;;;35.60;59.20;;;;;;7304667;19;20193;-82
2023/09/14 11:06:56;;;;;;;2.30;1.42;;;35.90;59.70;;;;;;7302918;19;20192;-79
2023/09/14 11:09:25;;;;;;;3.95;1.40;;;34.80;60.10;;;;;;7298863;19;20177;-78
2023/09/14 11:11:54;;;;;;;2.25;1.30;;;35.20;60.60;;;;;;7288279;19;20189;-81
2023/09/14 11:14:24;;;;;;;3.00;1.55;;;36.20;59.10;;;;;;7302356;19;20184;-81
2023/09/14 11:16:57;;;;;;;4.15;1.38;;;37.00;58.90;;;;;;7318960;19;20200;-82
2023/09/14 11:19:32;;;;;;;3.42;1.20;;;36.80;57.50;;;;;;7302803;19;20753;-79
2023/09/14 11:22:13;;;;;;;2.70;1.27;;;36.20;57.70;;;;;;7287940;19;20185;-82
2023/09/14 11:24:43;;;;;;;5.05;1.30;;;37.00;58.60;;;;;;7302715;19;20200;-82
2023/09/14 11:27:18;;;;;;;3.35;1.17;;;37.50;56.90;;;;;;7301130;19;20192;-81
2023/09/14 11:29:47;;;;;;;2.63;0.95;;;38.00;56.10;;;;;;7302638;19;20536;-79
2023/09/14 11:32:22;;;;;;;3.28;1.27;;;38.30;56.10;;;;;;7300243;19;20197;-79
2023/09/14 11:34:57;;;;;;;3.22;1.20;;;38.40;54.30;;;;;;7303227;19;20201;-82
2023/09/14 11:37:25;;;;;;;3.05;1.20;;;38.50;54.00;;;;;;7299276;19;20211;-79
2023/09/14 11:39:55;;;;;;;1.45;1.00;;;38.90;54.10;;;;;;7303873;19;20208;-82
2023/09/14 11:42:25;;;;;;;3.28;1.20;;;39.00;54.70;;;;;;7299753;19;20758;-81
2023/09/14 11:44:54;;;;;;;3.05;1.20;;;38.70;53.40;;;;;;7324229;19;20197;-79
2023/09/14 11:47:24;;;;;;;3.75;1.02;;;38.70;53.90;;;;;;7302259;19;20305;-82
2023/09/14 11:49:53;;;;;;;2.33;1.02;;;38.60;53.70;;;;;;7301007;19;20183;-79
2023/09/14 11:52:20;;;;;;;4.80;1.30;;;37.40;53.40;;;;;;7297287;19;20200;-81
2023/09/14 11:54:53;;;;;;;4.78;1.17;;;37.50;53.50;;;;;;7300823;19;20574;-80
2023/09/14 11:57:27;;;;;;;2.42;1.05;;;37.30;53.30;;;;;;7294873;19;20197;-80
2023/09/14 11:59:54;;;;;;;2.55;1.10;;;36.70;53.20;;;;;;7302367;19;20216;-81
2023/09/14 12:02:20;;;;;;;4.43;1.05;;;36.40;55.80;;;;;;7299461;19;20181;-81
2023/09/14 12:04:47;;;;;;;3.75;0.95;;;36.60;56.60;;;;;;7297798;19;20731;-82
2023/09/14 12:07:23;;;;;;;3.28;1.25;;;36.90;55.00;;;;;;7296023;19;20205;-79
2023/09/14 12:09:49;;;;;;;4.40;0.90;;;36.10;54.20;;;;;;7293523;19;20197;-78
2023/09/14 12:12:37;;;;;;;5.15;1.23;;;36.20;56.20;;;;;;7301203;19;20202;-79
2023/09/14 12:15:05;;;;;;;2.38;0.93;;;36.40;55.70;;;;;;7200026;19;2004618;-82
2023/09/14 12:17:32;;;;;;;2.33;1.25;;;36.80;55.20;;;;;;7301236;19;20230;-78
2023/09/14 12:20:00;;;;;;;4.68;1.00;;;37.50;54.20;;;;;;7304470;19;20242;-81
2023/09/14 12:22:29;;;;;;;3.78;1.00;;;36.20;53.30;;;;;;7323145;19;20184;-82
2023/09/14 12:24:57;;;;;;;4.55;1.17;;;35.80;54.30;;;;;;7300858;19;20193;-83
2023/09/14 12:27:25;;;;;;;2.85;1.13;;;35.60;54.30;;;;;;7292120;19;20297;-80
2023/09/14 12:29:51;;;;;;;2.80;1.10;;;35.00;54.50;;;;;;7301263;19;20213;-79
2023/09/14 12:32:18;;;;;;;3.35;1.10;;;35.30;55.00;;;;;;7298978;19;20225;-82
2023/09/14 12:34:45;;;;;;;3.47;1.10;;;35.30;54.10;;;;;;7293627;19;20204;-82
2023/09/14 12:37:16;;;;;;;3.35;1.10;;;34.80;54.60;;;;;;7295075;19;20192;-79
2023/09/14 12:39:51;;;;;;;4.97;1.15;;;34.90;55.50;;;;;;7299859;19;20206;-79
2023/09/14 12:42:32;;;;;;;3.40;1.27;;;34.60;56.60;;;;;;7298377;19;20203;-82
2023/09/14 12:44:59;;;;;;;2.28;1.00;;;33.90;56.30;;;;;;7295898;19;20259;-78
2023/09/14 12:47:31;;;;;;;3.38;1.20;;;33.00;56.60;;;;;;7300980;19;20233;-79
2023/09/14 12:50:08;;;;;;;2.28;0.90;;;32.20;58.00;;;;;;7298840;19;20196;-79
2023/09/14 12:52:39;;;;;;;3.50;1.13;;;31.60;59.40;;;;;;7297184;19;20205;-81
2023/09/14 12:55:14;;;;;;;4.40;1.00;;;31.30;63.70;;;;;;7297493;19;20205;-79